sensor_id;sensor_type;location;lat;lon;timestamp;pressure;altitude;pressure_sealevel;temperature;humidity
51468;BME280;37545;45.302;-122.946;2023-02-22T00:00:59;99731.16;;;7.82;78.12
51468;BME280;37545;45.302;-122.946;2023-02-22T00:03:33;99739.72;;;7.81;78.63
51468;BME280;37545;45.302;-122.946;2023-02-22T00:06:03;99730.16;;;7.75;80.28
51468;BME280;37545;45.302;-122.946;2023-02-22T00:08:33;99731.88;;;7.76;80.87
51468;BME280;37545;45.302;-122.946;2023-02-22T00:11:04;99726.72;;;7.74;80.05
51468;BME280;37545;45.302;-122.946;2023-02-22T00:13:34;99722.38;;;7.73;80.21
51468;BME280;37545;45.302;-122.946;2023-02-22T00:16:05;99724.09;;;7.73;81.34
51468;BME280;37545;45.302;-122.946;2023-02-22T00:18:34;99725.78;;;7.72;81.26
51468;BME280;37545;45.302;-122.946;2023-02-22T00:21:05;99719.69;;;7.69;82.34
51468;BME280;37545;45.302;-122.946;2023-02-22T00:23:38;99708.34;;;7.61;81.31
51468;BME280;37545;45.302;-122.946;2023-02-22T00:26:08;99711.56;;;7.52;83.94
51468;BME280;37545;45.302;-122.946;2023-02-22T00:28:38;99720.09;;;7.51;85.03
51468;BME280;37545;45.302;-122.946;2023-02-22T00:31:09;99716.72;;;7.52;85.78
51468;BME280;37545;45.302;-122.946;2023-02-22T00:33:38;99720.09;;;7.51;84.51
51468;BME280;37545;45.302;-122.946;2023-02-22T00:36:07;99703.75;;;7.49;84.96
51468;BME280;37545;45.302;-122.946;2023-02-22T00:38:37;99688.16;;;7.43;83.81
51468;BME280;37545;45.302;-122.946;2023-02-22T00:41:06;99686.16;;;7.31;84.97
51468;BME280;37545;45.302;-122.946;2023-02-22T00:43:34;99698.81;;;7.23;85.59
51468;BME280;37545;45.302;-122.946;2023-02-22T00:46:03;99700.53;;;7.23;87.36
51468;BME280;37545;45.302;-122.946;2023-02-22T00:48:34;99706.56;;;7.25;87.59
51468;BME280;37545;45.302;-122.946;2023-02-22T00:51:03;99696.91;;;7.16;88.13
51468;BME280;37545;45.302;-122.946;2023-02-22T00:53:31;99696.91;;;7.16;88.90
51468;BME280;37545;45.302;-122.946;2023-02-22T00:56:00;99696.97;;;7.19;88.83
51468;BME280;37545;45.302;-122.946;2023-02-22T00:58:28;99697.81;;;7.18;88.98
51468;BME280;37545;45.302;-122.946;2023-02-22T01:00:57;99682.28;;;7.13;88.36
51468;BME280;37545;45.302;-122.946;2023-02-22T01:03:26;99681.25;;;7.07;89.25
51468;BME280;37545;45.302;-122.946;2023-02-22T01:05:56;99680.31;;;7.05;89.82
51468;BME280;37545;45.302;-122.946;2023-02-22T01:08:24;99680.31;;;7.03;92.69
51468;BME280;37545;45.302;-122.946;2023-02-22T01:10:56;99693.19;;;7.05;92.42
51468;BME280;37545;45.302;-122.946;2023-02-22T01:13:25;99696.75;;;7.10;92.51
51468;BME280;37545;45.302;-122.946;2023-02-22T01:15:53;99693.47;;;7.16;92.65
51468;BME280;37545;45.302;-122.946;2023-02-22T01:18:22;99693.59;;;7.20;91.63
51468;BME280;37545;45.302;-122.946;2023-02-22T01:20:51;99688.50;;;7.23;92.72
51468;BME280;37545;45.302;-122.946;2023-02-22T01:23:21;99690.03;;;7.15;91.17
51468;BME280;37545;45.302;-122.946;2023-02-22T01:25:50;99700.22;;;7.12;91.78
51468;BME280;37545;45.302;-122.946;2023-02-22T01:28:18;99685.69;;;7.12;93.32
51468;BME280;37545;45.302;-122.946;2023-02-22T01:30:48;99685.63;;;7.11;91.82
51468;BME280;37545;45.302;-122.946;2023-02-22T01:33:16;99682.09;;;7.07;92.85
51468;BME280;37545;45.302;-122.946;2023-02-22T01:35:45;99681.16;;;7.04;90.68
51468;BME280;37545;45.302;-122.946;2023-02-22T01:38:16;99668.19;;;6.99;85.48
51468;BME280;37545;45.302;-122.946;2023-02-22T01:40:49;99662.94;;;6.96;85.03
51468;BME280;37545;45.302;-122.946;2023-02-22T01:43:20;99656.00;;;6.92;82.40
51468;BME280;37545;45.302;-122.946;2023-02-22T01:45:53;99662.00;;;6.92;83.11
51468;BME280;37545;45.302;-122.946;2023-02-22T01:48:27;99655.03;;;6.88;82.53
51468;BME280;37545;45.302;-122.946;2023-02-22T01:51:00;99658.28;;;6.81;83.21
51468;BME280;37545;45.302;-122.946;2023-02-22T01:53:37;99650.44;;;6.77;83.60
51468;BME280;37545;45.302;-122.946;2023-02-22T01:56:10;99657.25;;;6.75;83.36
51468;BME280;37545;45.302;-122.946;2023-02-22T01:58:39;99647.75;;;6.72;83.93
51468;BME280;37545;45.302;-122.946;2023-02-22T02:01:09;99637.34;;;6.67;82.64
51468;BME280;37545;45.302;-122.946;2023-02-22T02:03:39;99637.16;;;6.60;82.01
51468;BME280;37545;45.302;-122.946;2023-02-22T02:06:12;99647.19;;;6.52;82.11
51468;BME280;37545;45.302;-122.946;2023-02-22T02:08:48;99654.50;;;6.38;82.12
51468;BME280;37545;45.302;-122.946;2023-02-22T02:11:21;99658.72;;;6.36;83.61
51468;BME280;37545;45.302;-122.946;2023-02-22T02:13:52;99655.94;;;6.28;83.92
51468;BME280;37545;45.302;-122.946;2023-02-22T02:16:23;99656.56;;;6.20;84.18
51468;BME280;37545;45.302;-122.946;2023-02-22T02:18:53;99661.50;;;6.14;84.06
51468;BME280;37545;45.302;-122.946;2023-02-22T02:21:47;99657.72;;;6.02;85.27
51468;BME280;37545;45.302;-122.946;2023-02-22T02:24:48;99658.56;;;6.01;86.78
51468;BME280;37545;45.302;-122.946;2023-02-22T02:27:24;99667.97;;;6.01;87.68
51468;BME280;37545;45.302;-122.946;2023-02-22T02:30:35;99663.63;;;5.98;87.57
51468;BME280;37545;45.302;-122.946;2023-02-22T02:33:15;99655.09;;;5.99;88.16
51468;BME280;37545;45.302;-122.946;2023-02-22T02:35:57;99651.72;;;6.02;88.31
51468;BME280;37545;45.302;-122.946;2023-02-22T02:38:33;99649.22;;;6.03;88.54
51468;BME280;37545;45.302;-122.946;2023-02-22T02:41:09;99642.31;;;6.02;87.94
51468;BME280;37545;45.302;-122.946;2023-02-22T02:43:46;99644.03;;;6.02;88.38
51468;BME280;37545;45.302;-122.946;2023-02-22T02:46:19;99647.38;;;5.99;88.62
51468;BME280;37545;45.302;-122.946;2023-02-22T02:48:53;99645.53;;;5.95;88.46
51468;BME280;37545;45.302;-122.946;2023-02-22T02:51:26;99648.94;;;5.94;88.96
51468;BME280;37545;45.302;-122.946;2023-02-22T02:54:11;99645.34;;;5.89;89.21
51468;BME280;37545;45.302;-122.946;2023-02-22T02:56:40;99642.50;;;5.80;89.23
51468;BME280;37545;45.302;-122.946;2023-02-22T02:59:24;99651.72;;;5.75;89.37
51468;BME280;37545;45.302;-122.946;2023-02-22T03:02:01;99656.69;;;5.69;88.79
51468;BME280;37545;45.302;-122.946;2023-02-22T03:04:54;99647.94;;;5.63;89.17
51468;BME280;37545;45.302;-122.946;2023-02-22T03:07:41;99650.38;;;5.59;90.38
51468;BME280;37545;45.302;-122.946;2023-02-22T03:10:23;99650.22;;;5.54;90.85
51468;BME280;37545;45.302;-122.946;2023-02-22T03:13:07;99645.72;;;5.47;90.96
51468;BME280;37545;45.302;-122.946;2023-02-22T03:15:45;99644.72;;;5.42;91.66
51468;BME280;37545;45.302;-122.946;2023-02-22T03:18:23;99644.66;;;5.40;91.78
51468;BME280;37545;45.302;-122.946;2023-02-22T03:21:00;99643.69;;;5.37;92.53
51468;BME280;37545;45.302;-122.946;2023-02-22T03:23:37;99642.69;;;5.32;92.19
51468;BME280;37545;45.302;-122.946;2023-02-22T03:26:08;99634.69;;;5.22;91.94
51468;BME280;37545;45.302;-122.946;2023-02-22T03:28:40;99637.09;;;5.18;93.09
51468;BME280;37545;45.302;-122.946;2023-02-22T03:31:21;99629.13;;;5.10;92.68
51468;BME280;37545;45.302;-122.946;2023-02-22T03:33:53;99615.31;;;5.05;93.07
51468;BME280;37545;45.302;-122.946;2023-02-22T03:36:28;99622.78;;;4.99;93.43
51468;BME280;37545;45.302;-122.946;2023-02-22T03:39:00;99611.44;;;4.92;93.75
51468;BME280;37545;45.302;-122.946;2023-02-22T03:41:30;99599.16;;;4.82;93.53
51468;BME280;37545;45.302;-122.946;2023-02-22T03:44:03;99605.75;;;4.75;93.64
51468;BME280;37545;45.302;-122.946;2023-02-22T03:46:35;99592.63;;;4.66;93.84
51468;BME280;37545;45.302;-122.946;2023-02-22T03:49:09;99600.22;;;4.63;94.20
51468;BME280;37545;45.302;-122.946;2023-02-22T03:51:41;99613.66;;;4.56;94.67
51468;BME280;37545;45.302;-122.946;2023-02-22T03:54:10;99613.31;;;4.47;95.48
51468;BME280;37545;45.302;-122.946;2023-02-22T03:56:47;99617.97;;;4.34;96.56
51468;BME280;37545;45.302;-122.946;2023-02-22T03:59:17;99617.19;;;4.35;96.85
51468;BME280;37545;45.302;-122.946;2023-02-22T04:01:51;99619.69;;;4.34;97.13
51468;BME280;37545;45.302;-122.946;2023-02-22T04:04:20;99628.13;;;4.31;97.08
51468;BME280;37545;45.302;-122.946;2023-02-22T04:06:51;99627.25;;;4.31;97.35
51468;BME280;37545;45.302;-122.946;2023-02-22T04:09:20;99627.13;;;4.28;97.87
51468;BME280;37545;45.302;-122.946;2023-02-22T04:11:48;99631.16;;;4.21;97.96
51468;BME280;37545;45.302;-122.946;2023-02-22T04:14:17;99636.16;;;4.18;99.56
51468;BME280;37545;45.302;-122.946;2023-02-22T04:16:46;99643.50;;;4.09;99.92
51468;BME280;37545;45.302;-122.946;2023-02-22T04:19:15;99639.94;;;4.05;100.00
51468;BME280;37545;45.302;-122.946;2023-02-22T04:21:43;99646.75;;;4.05;100.00
51468;BME280;37545;45.302;-122.946;2023-02-22T04:24:14;99642.56;;;4.07;100.00
51468;BME280;37545;45.302;-122.946;2023-02-22T04:26:42;99637.56;;;4.10;100.00
51468;BME280;37545;45.302;-122.946;2023-02-22T04:29:11;99631.75;;;4.14;100.00
51468;BME280;37545;45.302;-122.946;2023-02-22T04:31:40;99622.38;;;4.14;100.00
51468;BME280;37545;45.302;-122.946;2023-02-22T04:34:09;99619.72;;;4.11;100.00
51468;BME280;37545;45.302;-122.946;2023-02-22T04:36:37;99611.97;;;4.10;100.00
51468;BME280;37545;45.302;-122.946;2023-02-22T04:39:07;99611.22;;;4.12;100.00
51468;BME280;37545;45.302;-122.946;2023-02-22T04:41:38;99611.84;;;4.07;100.00
51468;BME280;37545;45.302;-122.946;2023-02-22T04:44:06;99608.38;;;4.05;100.00
51468;BME280;37545;45.302;-122.946;2023-02-22T04:46:35;99611.84;;;4.07;100.00
51468;BME280;37545;45.302;-122.946;2023-02-22T04:49:03;99594.47;;;3.98;100.00
51468;BME280;37545;45.302;-122.946;2023-02-22T04:51:32;99591.03;;;3.97;100.00
51468;BME280;37545;45.302;-122.946;2023-02-22T04:54:01;99593.66;;;3.99;100.00
51468;BME280;37545;45.302;-122.946;2023-02-22T04:56:29;99588.38;;;3.94;100.00
51468;BME280;37545;45.302;-122.946;2023-02-22T04:59:00;99580.69;;;3.94;100.00
51468;BME280;37545;45.302;-122.946;2023-02-22T05:01:31;99582.25;;;3.91;100.00
51468;BME280;37545;45.302;-122.946;2023-02-22T05:04:01;99577.72;;;3.84;100.00
51468;BME280;37545;45.302;-122.946;2023-02-22T05:06:30;99576.72;;;3.80;100.00
51468;BME280;37545;45.302;-122.946;2023-02-22T05:08:58;99581.84;;;3.80;100.00
51468;BME280;37545;45.302;-122.946;2023-02-22T05:11:27;99580.97;;;3.80;100.00
51468;BME280;37545;45.302;-122.946;2023-02-22T05:13:56;99589.50;;;3.78;100.00
51468;BME280;37545;45.302;-122.946;2023-02-22T05:16:26;99585.13;;;3.76;100.00
51468;BME280;37545;45.302;-122.946;2023-02-22T05:18:55;99582.59;;;3.77;100.00
51468;BME280;37545;45.302;-122.946;2023-02-22T05:21:23;99583.50;;;3.78;100.00
51468;BME280;37545;45.302;-122.946;2023-02-22T05:23:52;99589.53;;;3.80;100.00
51468;BME280;37545;45.302;-122.946;2023-02-22T05:26:21;99590.47;;;3.82;100.00
51468;BME280;37545;45.302;-122.946;2023-02-22T05:28:49;99588.84;;;3.84;100.00
51468;BME280;37545;45.302;-122.946;2023-02-22T05:31:18;99583.72;;;3.84;100.00
51468;BME280;37545;45.302;-122.946;2023-02-22T05:33:48;99581.84;;;3.80;100.00
51468;BME280;37545;45.302;-122.946;2023-02-22T05:36:17;99580.88;;;3.76;100.00
51468;BME280;37545;45.302;-122.946;2023-02-22T05:38:45;99578.38;;;3.78;100.00
51468;BME280;37545;45.302;-122.946;2023-02-22T05:41:14;99569.03;;;3.78;100.00
51468;BME280;37545;45.302;-122.946;2023-02-22T05:43:42;99560.59;;;3.81;100.00
51468;BME280;37545;45.302;-122.946;2023-02-22T05:46:11;99562.44;;;3.85;100.00
51468;BME280;37545;45.302;-122.946;2023-02-22T05:48:41;99558.25;;;3.87;100.00
51468;BME280;37545;45.302;-122.946;2023-02-22T05:51:11;99553.88;;;3.85;100.00
51468;BME280;37545;45.302;-122.946;2023-02-22T05:53:39;99556.44;;;3.85;100.00
51468;BME280;37545;45.302;-122.946;2023-02-22T05:56:08;99559.88;;;3.85;99.98
51468;BME280;37545;45.302;-122.946;2023-02-22T05:58:37;99558.19;;;3.86;99.50
51468;BME280;37545;45.302;-122.946;2023-02-22T06:01:05;99565.81;;;3.84;99.40
51468;BME280;37545;45.302;-122.946;2023-02-22T06:03:34;99560.66;;;3.83;99.85
51468;BME280;37545;45.302;-122.946;2023-02-22T06:06:03;99570.00;;;3.82;99.85
51468;BME280;37545;45.302;-122.946;2023-02-22T06:08:33;99569.22;;;3.85;100.00
51468;BME280;37545;45.302;-122.946;2023-02-22T06:11:02;99568.44;;;3.86;100.00
51468;BME280;37545;45.302;-122.946;2023-02-22T06:13:31;99568.50;;;3.87;100.00
51468;BME280;37545;45.302;-122.946;2023-02-22T06:16:00;99565.09;;;3.88;100.00
51468;BME280;37545;45.302;-122.946;2023-02-22T06:18:28;99556.50;;;3.86;100.00
51468;BME280;37545;45.302;-122.946;2023-02-22T06:20:57;99552.91;;;3.81;100.00
51468;BME280;37545;45.302;-122.946;2023-02-22T06:23:26;99550.81;;;3.71;100.00
51468;BME280;37545;45.302;-122.946;2023-02-22T06:25:57;99555.91;;;3.71;100.00
51468;BME280;37545;45.302;-122.946;2023-02-22T06:28:32;99542.22;;;3.69;100.00
51468;BME280;37545;45.302;-122.946;2023-02-22T06:31:01;99540.38;;;3.65;100.00
51468;BME280;37545;45.302;-122.946;2023-02-22T06:33:30;99546.25;;;3.62;100.00
51468;BME280;37545;45.302;-122.946;2023-02-22T06:35:58;99543.72;;;3.64;100.00
51468;BME280;37545;45.302;-122.946;2023-02-22T06:38:27;99536.38;;;3.50;100.00
51468;BME280;37545;45.302;-122.946;2023-02-22T06:40:57;99547.97;;;3.63;100.00
51468;BME280;37545;45.302;-122.946;2023-02-22T06:43:28;99544.63;;;3.64;100.00
51468;BME280;37545;45.302;-122.946;2023-02-22T06:45:57;99553.94;;;3.64;100.00
51468;BME280;37545;45.302;-122.946;2023-02-22T06:48:25;99556.56;;;3.65;100.00
51468;BME280;37545;45.302;-122.946;2023-02-22T06:50:54;99559.19;;;3.67;100.00
51468;BME280;37545;45.302;-122.946;2023-02-22T06:53:23;99554.88;;;3.66;100.00
51468;BME280;37545;45.302;-122.946;2023-02-22T06:55:52;99557.34;;;3.63;100.00
51468;BME280;37545;45.302;-122.946;2023-02-22T06:58:23;99562.31;;;3.60;100.00
51468;BME280;37545;45.302;-122.946;2023-02-22T07:00:52;99560.59;;;3.59;100.00
51468;BME280;37545;45.302;-122.946;2023-02-22T07:03:21;99540.59;;;3.48;100.00
51468;BME280;37545;45.302;-122.946;2023-02-22T07:05:49;99557.09;;;3.56;100.00
51468;BME280;37545;45.302;-122.946;2023-02-22T07:08:18;99557.97;;;3.57;100.00
51468;BME280;37545;45.302;-122.946;2023-02-22T07:10:47;99551.13;;;3.56;100.00
51468;BME280;37545;45.302;-122.946;2023-02-22T07:13:18;99545.13;;;3.55;100.00
51468;BME280;37545;45.302;-122.946;2023-02-22T07:15:48;99540.13;;;3.59;100.00
51468;BME280;37545;45.302;-122.946;2023-02-22T07:18:16;99528.16;;;3.58;100.00
51468;BME280;37545;45.302;-122.946;2023-02-22T07:20:45;99519.66;;;3.59;100.00
51468;BME280;37545;45.302;-122.946;2023-02-22T07:23:14;99514.44;;;3.55;100.00
51468;BME280;37545;45.302;-122.946;2023-02-22T07:25:42;99514.31;;;3.52;100.00
51468;BME280;37545;45.302;-122.946;2023-02-22T07:28:11;99515.81;;;3.47;100.00
51468;BME280;37545;45.302;-122.946;2023-02-22T07:30:40;99511.56;;;3.48;100.00
51468;BME280;37545;45.302;-122.946;2023-02-22T07:33:11;99520.94;;;3.47;100.00
51468;BME280;37545;45.302;-122.946;2023-02-22T07:35:44;99502.63;;;3.36;100.00
51468;BME280;37545;45.302;-122.946;2023-02-22T07:38:14;99520.00;;;3.45;100.00
51468;BME280;37545;45.302;-122.946;2023-02-22T07:40:43;99515.81;;;3.47;100.00
51468;BME280;37545;45.302;-122.946;2023-02-22T07:43:15;99525.25;;;3.48;100.00
51468;BME280;37545;45.302;-122.946;2023-02-22T07:45:45;99514.84;;;3.44;100.00
51468;BME280;37545;45.302;-122.946;2023-02-22T07:48:16;99519.72;;;3.38;100.00
51468;BME280;37545;45.302;-122.946;2023-02-22T07:50:45;99518.09;;;3.40;100.00
51468;BME280;37545;45.302;-122.946;2023-02-22T07:53:16;99513.78;;;3.39;100.00
51468;BME280;37545;45.302;-122.946;2023-02-22T07:55:45;99513.59;;;3.34;100.00
51468;BME280;37545;45.302;-122.946;2023-02-22T07:58:17;99505.06;;;3.33;100.00
51468;BME280;37545;45.302;-122.946;2023-02-22T08:00:46;99506.94;;;3.38;100.00
51468;BME280;37545;45.302;-122.946;2023-02-22T08:03:18;99511.06;;;3.34;100.00
51468;BME280;37545;45.302;-122.946;2023-02-22T08:05:49;99506.66;;;3.30;100.00
51468;BME280;37545;45.302;-122.946;2023-02-22T08:08:18;99500.78;;;3.32;100.00
51468;BME280;37545;45.302;-122.946;2023-02-22T08:10:47;99501.53;;;3.30;100.00
51468;BME280;37545;45.302;-122.946;2023-02-22T08:13:17;99492.94;;;3.28;100.00
51468;BME280;37545;45.302;-122.946;2023-02-22T08:15:49;99498.09;;;3.29;100.00
51468;BME280;37545;45.302;-122.946;2023-02-22T08:18:20;99493.75;;;3.27;100.00
51468;BME280;37545;45.302;-122.946;2023-02-22T08:20:50;99495.44;;;3.26;100.00
51468;BME280;37545;45.302;-122.946;2023-02-22T08:23:21;99492.94;;;3.28;100.00
51468;BME280;37545;45.302;-122.946;2023-02-22T08:25:50;99495.53;;;3.29;100.00
51468;BME280;37545;45.302;-122.946;2023-02-22T08:28:20;99493.75;;;3.27;100.00
51468;BME280;37545;45.302;-122.946;2023-02-22T08:30:50;99492.13;;;3.29;100.00
51468;BME280;37545;45.302;-122.946;2023-02-22T08:33:20;99487.88;;;3.29;100.00
51468;BME280;37545;45.302;-122.946;2023-02-22T08:35:49;99486.25;;;3.31;100.00
51468;BME280;37545;45.302;-122.946;2023-02-22T08:38:20;99482.94;;;3.34;100.00
51468;BME280;37545;45.302;-122.946;2023-02-22T08:40:50;99481.31;;;3.36;100.00
51468;BME280;37545;45.302;-122.946;2023-02-22T08:43:19;99481.31;;;3.36;100.00
51468;BME280;37545;45.302;-122.946;2023-02-22T08:45:48;99482.25;;;3.38;100.00
51468;BME280;37545;45.302;-122.946;2023-02-22T08:48:19;99471.06;;;3.36;100.00
51468;BME280;37545;45.302;-122.946;2023-02-22T08:50:48;99464.09;;;3.32;100.00
51468;BME280;37545;45.302;-122.946;2023-02-22T08:53:17;99465.75;;;3.30;100.00
51468;BME280;37545;45.302;-122.946;2023-02-22T08:55:45;99458.88;;;3.29;100.00
51468;BME280;37545;45.302;-122.946;2023-02-22T08:58:15;99459.63;;;3.26;100.00
51468;BME280;37545;45.302;-122.946;2023-02-22T09:00:43;99453.53;;;3.23;100.00
51468;BME280;37545;45.302;-122.946;2023-02-22T09:03:13;99452.56;;;3.19;100.00
51468;BME280;37545;45.302;-122.946;2023-02-22T09:05:44;99447.28;;;3.14;100.00
51468;BME280;37545;45.302;-122.946;2023-02-22T09:08:15;99440.41;;;3.13;100.00
51468;BME280;37545;45.302;-122.946;2023-02-22T09:10:44;99444.72;;;3.14;100.00
51468;BME280;37545;45.302;-122.946;2023-02-22T09:13:13;99451.69;;;3.19;100.00
51468;BME280;37545;45.302;-122.946;2023-02-22T09:15:42;99451.69;;;3.19;100.00
51468;BME280;37545;45.302;-122.946;2023-02-22T09:18:12;99458.53;;;3.20;100.00
51468;BME280;37545;45.302;-122.946;2023-02-22T09:20:45;99456.09;;;3.23;100.00
51468;BME280;37545;45.302;-122.946;2023-02-22T09:23:15;99446.59;;;3.19;100.00
51468;BME280;37545;45.302;-122.946;2023-02-22T09:25:45;99447.56;;;3.22;100.00
51468;BME280;37545;45.302;-122.946;2023-02-22T09:28:13;99444.13;;;3.22;100.00
51468;BME280;37545;45.302;-122.946;2023-02-22T09:30:42;99439.88;;;3.22;100.00
51468;BME280;37545;45.302;-122.946;2023-02-22T09:33:13;99445.84;;;3.23;100.00
51468;BME280;37545;45.302;-122.946;2023-02-22T09:35:44;99448.59;;;3.27;100.00
51468;BME280;37545;45.302;-122.946;2023-02-22T09:38:14;99446.94;;;3.28;100.00
51468;BME280;37545;45.302;-122.946;2023-02-22T09:40:46;99448.75;;;3.32;100.00
51468;BME280;37545;45.302;-122.946;2023-02-22T09:43:24;99441.22;;;3.35;100.00
51468;BME280;37545;45.302;-122.946;2023-02-22T09:46:10;99431.94;;;3.37;100.00
51468;BME280;37545;45.302;-122.946;2023-02-22T09:48:52;99436.22;;;3.38;100.00
51468;BME280;37545;45.302;-122.946;2023-02-22T09:51:28;99425.19;;;3.39;100.00
51468;BME280;37545;45.302;-122.946;2023-02-22T09:54:03;99425.22;;;3.41;100.00
51468;BME280;37545;45.302;-122.946;2023-02-22T09:56:33;99425.28;;;3.42;100.00
51468;BME280;37545;45.302;-122.946;2023-02-22T09:59:05;99420.97;;;3.41;100.00
51468;BME280;37545;45.302;-122.946;2023-02-22T10:01:39;99421.81;;;3.40;100.00
51468;BME280;37545;45.302;-122.946;2023-02-22T10:04:15;99421.69;;;3.37;100.00
51468;BME280;37545;45.302;-122.946;2023-02-22T10:07:14;99419.84;;;3.33;100.00
51468;BME280;37545;45.302;-122.946;2023-02-22T10:09:45;99413.88;;;3.32;100.00
51468;BME280;37545;45.302;-122.946;2023-02-22T10:12:22;99405.38;;;3.33;100.00
51468;BME280;37545;45.302;-122.946;2023-02-22T10:18:02;99405.03;;;3.24;100.00
51468;BME280;37545;45.302;-122.946;2023-02-22T10:20:50;99393.81;;;3.21;100.00
51468;BME280;37545;45.302;-122.946;2023-02-22T10:23:27;99395.47;;;3.19;100.00
51468;BME280;37545;45.302;-122.946;2023-02-22T10:26:12;99394.41;;;3.13;100.00
51468;BME280;37545;45.302;-122.946;2023-02-22T10:28:47;99388.16;;;3.05;100.00
51468;BME280;37545;45.302;-122.946;2023-02-22T10:31:24;99394.78;;;3.00;100.00
51468;BME280;37545;45.302;-122.946;2023-02-22T10:33:57;99387.91;;;2.99;100.00
51468;BME280;37545;45.302;-122.946;2023-02-22T10:36:27;99379.31;;;2.97;100.00
51468;BME280;37545;45.302;-122.946;2023-02-22T10:38:58;99388.00;;;3.02;100.00
51468;BME280;37545;45.302;-122.946;2023-02-22T10:41:29;99391.41;;;3.01;100.00
51468;BME280;37545;45.302;-122.946;2023-02-22T10:43:59;99367.13;;;2.90;100.00
51468;BME280;37545;45.302;-122.946;2023-02-22T10:46:30;99381.16;;;3.01;100.00
51468;BME280;37545;45.302;-122.946;2023-02-22T10:49:03;99381.25;;;3.03;100.00
51468;BME280;37545;45.302;-122.946;2023-02-22T10:51:34;99376.16;;;3.04;100.00
51468;BME280;37545;45.302;-122.946;2023-02-22T10:54:21;99374.44;;;3.03;100.00
51468;BME280;37545;45.302;-122.946;2023-02-22T10:56:53;99377.78;;;3.02;100.00
51468;BME280;37545;45.302;-122.946;2023-02-22T10:59:28;99377.78;;;3.02;100.00
51468;BME280;37545;45.302;-122.946;2023-02-22T11:01:58;99379.44;;;3.00;100.00
51468;BME280;37545;45.302;-122.946;2023-02-22T11:04:27;99376.81;;;2.99;100.00
51468;BME280;37545;45.302;-122.946;2023-02-22T11:07:19;99375.97;;;2.98;100.00
51468;BME280;37545;45.302;-122.946;2023-02-22T11:09:52;99376.06;;;3.01;100.00
51468;BME280;37545;45.302;-122.946;2023-02-22T11:12:27;99363.34;;;3.03;100.00
51468;BME280;37545;45.302;-122.946;2023-02-22T11:14:56;99361.50;;;2.99;100.00
51468;BME280;37545;45.302;-122.946;2023-02-22T11:17:29;99375.47;;;3.08;100.00
51468;BME280;37545;45.302;-122.946;2023-02-22T11:19:58;99377.94;;;3.05;100.00
51468;BME280;37545;45.302;-122.946;2023-02-22T11:22:38;99372.69;;;3.02;100.00
51468;BME280;37545;45.302;-122.946;2023-02-22T11:25:18;99365.09;;;3.04;100.00
51468;BME280;37545;45.302;-122.946;2023-02-22T11:27:47;99367.69;;;3.05;100.00
51468;BME280;37545;45.302;-122.946;2023-02-22T11:30:25;99366.19;;;3.10;100.00
51468;BME280;37545;45.302;-122.946;2023-02-22T11:32:56;99362.75;;;3.10;100.00
51468;BME280;37545;45.302;-122.946;2023-02-22T11:35:36;99361.16;;;3.13;100.00
51468;BME280;37545;45.302;-122.946;2023-02-22T11:38:18;99361.13;;;3.12;100.00
51468;BME280;37545;45.302;-122.946;2023-02-22T11:41:10;99360.31;;;3.13;100.00
51468;BME280;37545;45.302;-122.946;2023-02-22T11:43:40;99363.72;;;3.13;100.00
51468;BME280;37545;45.302;-122.946;2023-02-22T11:46:13;99359.44;;;3.12;100.00
51468;BME280;37545;45.302;-122.946;2023-02-22T11:48:55;99358.50;;;3.10;100.00
51468;BME280;37545;45.302;-122.946;2023-02-22T11:51:35;99350.63;;;3.04;100.00
51468;BME280;37545;45.302;-122.946;2023-02-22T11:54:22;99355.63;;;3.01;100.00
51468;BME280;37545;45.302;-122.946;2023-02-22T11:57:11;99359.22;;;3.06;100.00
51468;BME280;37545;45.302;-122.946;2023-02-22T11:59:54;99352.38;;;3.05;100.00
51468;BME280;37545;45.302;-122.946;2023-02-22T12:02:39;99356.66;;;3.06;100.00
51468;BME280;37545;45.302;-122.946;2023-02-22T12:05:21;99361.00;;;3.09;100.00
51468;BME280;37545;45.302;-122.946;2023-02-22T12:08:02;99358.34;;;3.06;100.00
51468;BME280;37545;45.302;-122.946;2023-02-22T12:10:46;99358.88;;;2.97;100.00
51468;BME280;37545;45.302;-122.946;2023-02-22T12:13:39;99365.59;;;2.95;100.00
51468;BME280;37545;45.302;-122.946;2023-02-22T12:16:18;99372.47;;;2.96;100.00
51468;BME280;37545;45.302;-122.946;2023-02-22T12:19:03;99367.38;;;2.96;100.00
51468;BME280;37545;45.302;-122.946;2023-02-22T12:21:36;99365.59;;;2.95;100.00
51468;BME280;37545;45.302;-122.946;2023-02-22T12:24:07;99362.50;;;2.80;100.00
51468;BME280;37545;45.302;-122.946;2023-02-22T12:26:41;99367.59;;;2.80;100.00
51468;BME280;37545;45.302;-122.946;2023-02-22T12:29:19;99359.88;;;2.78;100.00
51468;BME280;37545;45.302;-122.946;2023-02-22T12:31:56;99367.25;;;2.70;100.00
51468;BME280;37545;45.302;-122.946;2023-02-22T12:34:31;99367.94;;;2.66;100.00
51468;BME280;37545;45.302;-122.946;2023-02-22T12:37:08;99371.41;;;2.68;100.00
51468;BME280;37545;45.302;-122.946;2023-02-22T12:39:55;99368.03;;;2.69;100.00
51468;BME280;37545;45.302;-122.946;2023-02-22T12:42:30;99372.19;;;2.66;100.00
51468;BME280;37545;45.302;-122.946;2023-02-22T12:45:07;99379.88;;;2.67;100.00
51468;BME280;37545;45.302;-122.946;2023-02-22T12:47:43;99377.16;;;2.63;100.00
51468;BME280;37545;45.302;-122.946;2023-02-22T12:50:17;99365.38;;;2.66;100.00
51468;BME280;37545;45.302;-122.946;2023-02-22T12:52:52;99369.66;;;2.67;100.00
51468;BME280;37545;45.302;-122.946;2023-02-22T12:55:27;99358.34;;;2.61;100.00
51468;BME280;37545;45.302;-122.946;2023-02-22T12:58:05;99357.72;;;2.66;100.00
51468;BME280;37545;45.302;-122.946;2023-02-22T13:00:40;99357.72;;;2.66;100.00
51468;BME280;37545;45.302;-122.946;2023-02-22T13:03:25;99353.22;;;2.61;100.00